createdAt,value
2022-08-19T00:02:07.488Z,12.13
2022-08-19T00:04:38.009Z,12.90
2022-08-19T00:07:08.172Z,13.38
2022-08-19T00:09:36.733Z,13.55
2022-08-19T00:12:05.877Z,12.85
2022-08-19T00:14:34.658Z,12.60
2022-08-19T00:17:06.150Z,12.50
2022-08-19T00:19:35.749Z,13.25
2022-08-19T00:22:04.876Z,12.60
2022-08-19T00:24:34.146Z,13.15
2022-08-19T00:27:25.810Z,13.82
2022-08-19T00:29:53.214Z,13.32
2022-08-19T00:32:23.885Z,12.77
2022-08-19T00:34:54.555Z,12.40
2022-08-19T00:37:24.192Z,12.85
2022-08-19T00:42:23.069Z,12.73
2022-08-19T00:44:52.858Z,12.60
2022-08-19T00:47:22.763Z,12.32
2022-08-19T00:49:54.277Z,13.10
2022-08-19T00:52:26.349Z,12.90
2022-08-19T00:54:55.515Z,12.00
2022-08-19T00:57:32.972Z,12.23
2022-08-19T01:00:03.544Z,11.45
2022-08-19T01:02:34.938Z,11.93
2022-08-19T01:05:06.704Z,12.77
2022-08-19T01:07:38.250Z,13.50
2022-08-19T01:10:10.030Z,14.10
2022-08-19T01:12:39.915Z,13.52
2022-08-19T01:15:14.851Z,13.10
2022-08-19T01:17:45.722Z,13.82
2022-08-19T01:20:16.425Z,13.38
2022-08-19T01:22:49.522Z,12.38
2022-08-19T01:25:21.561Z,14.15
2022-08-19T01:27:54.316Z,12.90
2022-08-19T01:30:31.338Z,13.98
2022-08-19T01:33:01.634Z,14.82
2022-08-19T01:35:32.608Z,14.23
2022-08-19T01:38:07.060Z,14.43
2022-08-19T01:40:39.539Z,15.60
2022-08-19T01:43:08.892Z,15.18
2022-08-19T01:45:41.260Z,15.82
2022-08-19T01:48:10.527Z,15.63
2022-08-19T01:50:39.101Z,15.43
2022-08-19T01:53:13.401Z,15.20
2022-08-19T01:55:44.770Z,15.38
2022-08-19T01:58:17.200Z,14.95
2022-08-19T02:00:47.389Z,14.45
2022-08-19T02:03:17.086Z,15.45
2022-08-19T02:05:46.783Z,14.57
2022-08-19T02:08:17.221Z,13.90
2022-08-19T02:10:46.491Z,14.75
2022-08-19T02:15:50.952Z,15.10
2022-08-19T02:18:19.521Z,15.48
2022-08-19T02:20:48.659Z,14.55
2022-08-19T02:23:19.615Z,14.65
2022-08-19T02:25:53.572Z,14.45
2022-08-19T02:28:22.292Z,13.32
2022-08-19T02:30:50.826Z,15.33
2022-08-19T02:33:19.342Z,13.88
2022-08-19T02:35:49.318Z,13.77
2022-08-19T02:38:27.275Z,13.27
2022-08-19T02:40:59.415Z,14.43
2022-08-19T02:43:29.132Z,13.75
2022-08-19T02:46:02.670Z,12.32
2022-08-19T02:48:31.197Z,12.15
2022-08-19T02:51:00.546Z,12.52
2022-08-19T02:53:31.058Z,12.73
2022-08-19T02:55:59.784Z,12.57
2022-08-19T02:58:28.988Z,12.40
2022-08-19T03:03:27.598Z,11.38
2022-08-19T03:06:06.711Z,12.38
2022-08-19T03:08:37.362Z,12.65
2022-08-19T03:11:34.758Z,11.93
2022-08-19T03:14:05.420Z,13.23
2022-08-19T03:16:43.274Z,13.15
2022-08-19T03:19:12.090Z,12.77
2022-08-19T03:21:40.519Z,13.38
2022-08-19T03:24:11.291Z,13.37
2022-08-19T03:26:42.432Z,13.63
2022-08-19T03:29:11.398Z,13.65
2022-08-19T03:31:52.512Z,14.10
2022-08-19T03:34:27.241Z,13.63
2022-08-19T03:36:57.134Z,14.32
2022-08-19T03:39:28.482Z,13.82
2022-08-19T03:42:30.067Z,11.27
2022-08-19T03:44:47.838Z,11.52
2022-08-19T03:47:17.596Z,12.35
2022-08-19T03:49:46.235Z,12.35
2022-08-19T03:52:15.289Z,11.93
2022-08-19T03:57:14.580Z,11.65
2022-08-19T03:59:42.987Z,12.18
2022-08-19T04:02:13.582Z,11.73
2022-08-19T04:04:44.673Z,11.73
2022-08-19T04:07:17.326Z,13.13
2022-08-19T04:09:47.158Z,13.88
2022-08-19T04:12:16.010Z,13.40
2022-08-19T04:14:44.498Z,13.35
2022-08-19T04:17:15.117Z,13.43
2022-08-19T04:19:43.996Z,14.38
2022-08-19T04:22:13.696Z,13.57
2022-08-19T04:24:42.122Z,14.48
2022-08-19T04:27:12.234Z,13.88
2022-08-19T04:29:41.513Z,12.43
2022-08-19T04:32:10.194Z,12.48
2022-08-19T04:37:35.430Z,12.70
2022-08-19T04:40:25.386Z,11.52
2022-08-19T04:42:55.605Z,13.40
2022-08-19T04:45:24.877Z,13.18
2022-08-19T04:48:26.241Z,12.40
2022-08-19T04:50:47.260Z,12.25
2022-08-19T04:53:16.471Z,12.50
2022-08-19T04:58:18.620Z,12.52
2022-08-19T05:00:47.185Z,13.07
2022-08-19T05:03:18.163Z,12.60
2022-08-19T05:05:49.389Z,12.70
2022-08-19T05:08:30.962Z,12.68
2022-08-19T05:11:00.258Z,12.00
2022-08-19T05:13:30.610Z,11.88
2022-08-19T05:16:01.056Z,12.20
2022-08-19T05:18:47.266Z,12.40
2022-08-19T05:21:35.649Z,12.20
2022-08-19T05:24:08.894Z,12.70
2022-08-19T05:26:37.730Z,12.52
2022-08-19T05:29:09.610Z,12.95
2022-08-19T05:31:41.653Z,12.63
2022-08-19T05:34:20.298Z,13.57
2022-08-19T05:36:49.443Z,13.27
2022-08-19T05:39:21.450Z,13.57
2022-08-19T05:41:55.657Z,13.50
2022-08-19T05:44:27.031Z,13.13
2022-08-19T05:46:55.843Z,13.05
2022-08-19T05:49:26.445Z,12.02
2022-08-19T05:51:56.013Z,12.15
2022-08-19T05:54:25.736Z,11.30
2022-08-19T05:56:55.059Z,11.20
2022-08-19T05:59:26.351Z,11.65
2022-08-19T06:01:56.748Z,11.43
2022-08-19T06:04:26.426Z,11.35
2022-08-19T06:06:56.156Z,11.27
2022-08-19T06:09:25.669Z,11.00
2022-08-19T06:12:00.825Z,11.43
2022-08-19T06:14:33.399Z,10.43
2022-08-19T06:17:07.288Z,10.63
2022-08-19T06:19:41.020Z,10.77
2022-08-19T06:22:10.922Z,10.63
2022-08-19T06:24:39.294Z,10.95
2022-08-19T06:27:07.692Z,10.82
2022-08-19T06:29:38.070Z,10.73
2022-08-19T06:32:08.597Z,10.88
2022-08-19T06:34:40.629Z,10.90
2022-08-19T06:37:09.152Z,11.30
2022-08-19T06:39:43.489Z,10.70
2022-08-19T06:42:17.447Z,10.68
2022-08-19T06:44:53.578Z,10.35
2022-08-19T06:47:28.546Z,9.77
2022-08-19T06:50:01.166Z,10.40
2022-08-19T06:52:36.583Z,10.43
2022-08-19T06:55:08.238Z,10.50
2022-08-19T06:57:38.683Z,10.25
2022-08-19T07:00:14.346Z,9.60
2022-08-19T07:02:48.154Z,9.88
2022-08-19T07:05:22.264Z,10.32
2022-08-19T07:07:51.181Z,9.35
2022-08-19T07:10:20.397Z,10.18
2022-08-19T07:12:50.189Z,9.93
2022-08-19T07:15:22.453Z,9.98
2022-08-19T07:17:52.529Z,9.82
2022-08-19T07:20:21.919Z,9.30
2022-08-19T07:22:57.248Z,9.52
2022-08-19T07:25:32.223Z,8.82
2022-08-19T07:28:02.775Z,9.45
2022-08-19T07:30:39.751Z,9.07
2022-08-19T07:33:12.755Z,8.60
2022-08-19T07:35:43.517Z,9.13
2022-08-19T07:38:13.530Z,8.55
2022-08-19T07:40:48.089Z,8.73
2022-08-19T07:43:18.257Z,7.78
2022-08-19T07:45:48.668Z,8.02
2022-08-19T07:48:17.157Z,8.00
2022-08-19T07:50:49.712Z,8.32
2022-08-19T07:53:21.322Z,8.07
2022-08-19T07:55:50.941Z,7.55
2022-08-19T07:58:24.498Z,8.27
2022-08-19T08:00:54.781Z,7.85
2022-08-19T08:03:45.688Z,7.13
2022-08-19T08:06:33.146Z,7.57
2022-08-19T08:09:16.947Z,7.30
2022-08-19T08:11:50.601Z,8.00
2022-08-19T08:14:29.258Z,7.70
2022-08-19T08:17:10.997Z,7.05
2022-08-19T08:19:42.175Z,7.10
2022-08-19T08:22:33.877Z,6.75
2022-08-19T08:25:07.807Z,7.18
2022-08-19T08:27:40.527Z,6.63
2022-08-19T08:30:10.865Z,6.40
2022-08-19T08:32:41.716Z,6.13
2022-08-19T08:35:14.263Z,5.60
2022-08-19T08:37:43.025Z,5.93
2022-08-19T08:40:31.905Z,5.85
2022-08-19T08:43:11.349Z,5.57
2022-08-19T08:45:53.460Z,5.78
2022-08-19T08:48:29.871Z,4.82
2022-08-19T08:51:00.054Z,5.20
2022-08-19T08:53:33.397Z,5.07
2022-08-19T08:56:05.830Z,5.22
2022-08-19T08:58:44.252Z,4.78
2022-08-19T09:01:14.263Z,4.43
2022-08-19T09:03:46.442Z,4.93
2022-08-19T09:06:26.012Z,5.05
2022-08-19T09:09:04.393Z,4.80
2022-08-19T09:11:56.143Z,5.30
2022-08-19T09:14:51.282Z,4.47
2022-08-19T09:17:29.218Z,4.90
2022-08-19T09:20:03.694Z,5.35
2022-08-19T09:22:33.445Z,4.75
2022-08-19T09:25:02.256Z,4.57
2022-08-19T09:27:53.850Z,4.68
2022-08-19T09:30:23.233Z,4.70
2022-08-19T09:32:53.719Z,4.57
2022-08-19T09:35:25.073Z,4.40
2022-08-19T09:37:57.673Z,4.20
2022-08-19T09:40:30.337Z,4.78
2022-08-19T09:43:12.969Z,3.92
2022-08-19T09:45:42.687Z,4.40
2022-08-19T09:50:52.027Z,4.25
2022-08-19T09:53:25.545Z,4.32
2022-08-19T09:55:54.714Z,4.07
2022-08-19T09:58:26.691Z,4.35
2022-08-19T10:00:55.947Z,3.97
2022-08-19T10:06:02.667Z,3.95
2022-08-19T10:08:33.933Z,4.43
2022-08-19T10:11:27.223Z,3.90
2022-08-19T10:13:52.003Z,4.32
2022-08-19T10:16:26.036Z,3.97
2022-08-19T10:19:05.940Z,4.68
2022-08-19T10:21:38.839Z,4.70
2022-08-19T10:24:09.450Z,4.20
2022-08-19T10:26:46.095Z,3.90
2022-08-19T10:29:31.945Z,4.57
2022-08-19T10:32:02.234Z,4.13
2022-08-19T10:34:33.302Z,4.53
2022-08-19T10:37:05.880Z,4.05
2022-08-19T10:39:43.162Z,4.00
2022-08-19T10:42:14.172Z,4.05
2022-08-19T10:44:43.167Z,4.15
2022-08-19T10:50:41.249Z,4.63
2022-08-19T10:53:11.422Z,4.45
2022-08-19T10:56:03.673Z,3.92
2022-08-19T10:58:34.507Z,3.55
2022-08-19T11:01:02.904Z,4.30
2022-08-19T11:03:31.724Z,4.43
2022-08-19T11:06:03.160Z,4.22
2022-08-19T11:08:34.484Z,4.25
2022-08-19T11:11:04.905Z,4.53
2022-08-19T11:13:36.251Z,4.13
2022-08-19T11:16:08.186Z,4.80
2022-08-19T11:18:39.042Z,4.55
2022-08-19T11:21:12.366Z,4.32
2022-08-19T11:23:42.633Z,4.68
2022-08-19T11:26:12.096Z,4.15
2022-08-19T11:28:48.276Z,4.15
2022-08-19T11:31:20.384Z,4.43
2022-08-19T11:33:51.782Z,4.20
2022-08-19T11:36:21.593Z,3.90
2022-08-19T11:38:51.886Z,4.18
2022-08-19T11:41:24.097Z,4.18
2022-08-19T11:43:54.775Z,4.78
2022-08-19T11:46:24.986Z,4.65
2022-08-19T11:48:53.328Z,4.63
2022-08-19T11:51:23.711Z,3.92
2022-08-19T11:53:54.035Z,4.32
2022-08-19T11:56:23.762Z,4.22
2022-08-19T11:58:53.152Z,4.50
2022-08-19T12:01:25.100Z,4.22
2022-08-19T12:03:54.878Z,3.97
2022-08-19T12:06:29.483Z,4.10
2022-08-19T12:09:00.798Z,3.75
2022-08-19T12:11:34.581Z,4.15
2022-08-19T12:14:03.408Z,4.10
2022-08-19T12:19:05.216Z,3.83
2022-08-19T12:21:36.460Z,4.20
2022-08-19T12:24:08.539Z,4.10
2022-08-19T12:26:53.406Z,3.70
2022-08-19T12:29:24.111Z,3.83
2022-08-19T12:31:53.483Z,4.28
2022-08-19T12:34:22.233Z,4.18
2022-08-19T12:36:51.451Z,4.03
2022-08-19T12:39:22.012Z,4.53
2022-08-19T12:41:54.712Z,4.50
2022-08-19T12:44:29.508Z,4.35
2022-08-19T12:47:01.305Z,4.70
2022-08-19T12:49:53.760Z,30.20
2022-08-19T12:52:23.858Z,4.22
2022-08-19T12:54:57.104Z,4.07
2022-08-19T12:57:34.484Z,4.15
2022-08-19T13:00:10.813Z,4.00
2022-08-19T13:02:39.848Z,4.00
2022-08-19T13:05:13.708Z,4.40
2022-08-19T13:07:44.932Z,3.80
2022-08-19T13:10:19.060Z,4.68
2022-08-19T13:12:49.352Z,4.05
2022-08-19T13:15:23.870Z,4.05
2022-08-19T13:17:56.907Z,4.15
2022-08-19T13:20:26.764Z,3.90
2022-08-19T13:22:55.971Z,3.72
2022-08-19T13:25:26.803Z,4.07
2022-08-19T13:27:58.104Z,4.10
2022-08-19T13:30:43.974Z,4.28
2022-08-19T13:33:16.760Z,4.18
2022-08-19T13:35:48.701Z,4.07
2022-08-19T13:38:20.346Z,4.28
2022-08-19T13:40:52.748Z,4.20
2022-08-19T13:43:23.805Z,3.72
2022-08-19T13:45:57.384Z,4.18
2022-08-19T13:48:28.414Z,3.92
2022-08-19T13:50:57.377Z,4.03
2022-08-19T13:53:25.805Z,4.10
2022-08-19T13:58:26.411Z,4.53
2022-08-19T14:00:57.368Z,4.70
2022-08-19T14:03:25.824Z,4.05
2022-08-19T14:06:38.797Z,4.53
2022-08-19T14:09:12.570Z,4.75
2022-08-19T14:14:16.607Z,3.60
2022-08-19T14:19:18.659Z,3.85
2022-08-19T14:24:16.718Z,4.78
2022-08-19T14:26:46.668Z,4.25
2022-08-19T14:29:14.935Z,4.43
2022-08-19T14:31:45.103Z,4.13
2022-08-19T14:34:13.832Z,4.10
2022-08-19T14:36:42.934Z,4.25
2022-08-19T14:39:11.642Z,3.83
2022-08-19T14:41:42.619Z,4.55
2022-08-19T14:44:13.540Z,4.28
2022-08-19T14:46:49.497Z,4.30
2022-08-19T14:49:19.030Z,4.63
2022-08-19T14:51:48.782Z,4.60
2022-08-19T14:54:17.142Z,4.53
2022-08-19T14:56:48.087Z,4.13
2022-08-19T14:59:18.529Z,5.15
2022-08-19T15:01:46.704Z,4.40
2022-08-19T15:04:15.057Z,4.20
2022-08-19T15:06:43.709Z,4.15
2022-08-19T15:09:12.469Z,4.25
2022-08-19T15:11:40.843Z,4.30
2022-08-19T15:14:11.045Z,5.03
2022-08-19T15:16:42.874Z,5.05
2022-08-19T15:19:11.449Z,4.88
2022-08-19T15:21:39.668Z,4.43
2022-08-19T15:24:08.360Z,4.57
2022-08-19T15:26:36.738Z,5.13
2022-08-19T15:29:05.814Z,5.00
2022-08-19T15:31:38.342Z,5.13
2022-08-19T15:34:09.445Z,5.22
2022-08-19T15:36:37.783Z,4.38
2022-08-19T15:39:06.578Z,4.50
2022-08-19T15:41:34.931Z,4.90
2022-08-19T15:44:09.120Z,4.60
2022-08-19T15:46:39.422Z,4.65
2022-08-19T15:49:10.454Z,4.60
2022-08-19T15:51:40.311Z,4.80
2022-08-19T15:54:10.823Z,4.97
2022-08-19T15:56:57.675Z,4.95
2022-08-19T15:59:47.052Z,4.97
2022-08-19T16:02:33.888Z,4.75
2022-08-19T16:05:21.008Z,4.90
2022-08-19T16:07:49.438Z,4.82
2022-08-19T16:12:57.205Z,5.70
2022-08-19T16:15:27.469Z,5.07
2022-08-19T16:17:56.978Z,5.28
2022-08-19T16:20:28.115Z,5.28
2022-08-19T16:22:58.453Z,5.40
2022-08-19T16:25:29.223Z,5.40
2022-08-19T16:28:07.572Z,5.78
2022-08-19T16:30:39.027Z,5.07
2022-08-19T16:33:08.413Z,5.13
2022-08-19T16:35:38.024Z,5.35
2022-08-19T16:38:07.085Z,5.80
2022-08-19T16:40:36.343Z,5.20
2022-08-19T16:43:04.742Z,5.20
2022-08-19T16:45:33.233Z,5.32
2022-08-19T16:48:01.756Z,5.40
2022-08-19T16:50:48.124Z,5.32
2022-08-19T16:53:20.853Z,5.60
2022-08-19T16:55:50.868Z,5.53
2022-08-19T16:58:19.764Z,5.05
2022-08-19T17:00:50.144Z,5.43
2022-08-19T17:03:19.770Z,5.78
2022-08-19T17:06:04.699Z,5.60
2022-08-19T17:08:48.729Z,5.88
2022-08-19T17:11:19.146Z,5.53
2022-08-19T17:13:48.313Z,6.03
2022-08-19T17:16:17.560Z,5.78
2022-08-19T17:18:45.926Z,5.25
2022-08-19T17:21:14.441Z,6.30
2022-08-19T17:23:44.104Z,5.90
2022-08-19T17:26:18.071Z,5.97
2022-08-19T17:28:49.594Z,5.53
2022-08-19T17:31:23.726Z,5.97
2022-08-19T17:33:52.164Z,6.13
2022-08-19T17:36:23.409Z,5.70
2022-08-19T17:38:52.129Z,6.18
2022-08-19T17:41:21.663Z,6.10
2022-08-19T17:43:50.401Z,5.82
2022-08-19T17:46:19.496Z,6.20
2022-08-19T17:48:52.738Z,6.00
2022-08-19T17:51:23.922Z,6.10
2022-08-19T17:53:54.301Z,6.05
2022-08-19T17:56:24.978Z,6.57
2022-08-19T17:58:59.978Z,6.35
2022-08-19T18:01:39.591Z,6.65
2022-08-19T18:04:19.862Z,6.28
2022-08-19T18:06:53.638Z,6.82
2022-08-19T18:09:28.794Z,6.90
2022-08-19T18:12:09.986Z,5.78
2022-08-19T18:14:39.901Z,7.03
2022-08-19T18:17:10.890Z,6.60
2022-08-19T18:19:42.970Z,6.82
2022-08-19T18:22:22.569Z,6.53
2022-08-19T18:24:51.136Z,6.90
2022-08-19T18:27:21.326Z,6.82
2022-08-19T18:29:50.047Z,7.07
2022-08-19T18:32:24.033Z,6.93
2022-08-19T18:34:53.406Z,6.90
2022-08-19T18:37:23.050Z,7.80
2022-08-19T18:40:13.259Z,8.02
2022-08-19T18:43:04.707Z,7.47
2022-08-19T18:45:51.052Z,8.15
2022-08-19T18:48:37.117Z,6.93
2022-08-19T18:51:05.785Z,6.68
2022-08-19T18:53:37.965Z,7.18
2022-08-19T18:56:06.823Z,6.97
2022-08-19T18:58:38.738Z,6.22
2022-08-19T19:01:11.763Z,6.40
2022-08-19T19:03:44.331Z,7.20
2022-08-19T19:06:13.005Z,7.50
2022-08-19T19:11:10.308Z,7.03
2022-08-19T19:13:41.213Z,7.00
2022-08-19T19:16:11.679Z,7.40
2022-08-19T19:18:40.530Z,7.18
2022-08-19T19:21:10.030Z,6.95
2022-08-19T19:23:41.043Z,7.72
2022-08-19T19:26:11.019Z,6.47
2022-08-19T19:28:48.100Z,7.65
2022-08-19T19:31:18.433Z,6.95
2022-08-19T19:33:47.668Z,7.10
2022-08-19T19:38:48.560Z,6.93
2022-08-19T19:41:19.351Z,6.43
2022-08-19T19:43:59.917Z,7.30
2022-08-19T19:46:39.308Z,6.55
2022-08-19T19:49:07.949Z,6.88
2022-08-19T19:51:39.574Z,7.28
2022-08-19T19:54:13.740Z,6.70
2022-08-19T19:56:45.082Z,6.97
2022-08-19T19:59:15.655Z,7.40
2022-08-19T20:01:46.086Z,7.03
2022-08-19T20:04:15.971Z,7.13
2022-08-19T20:06:44.855Z,7.05
2022-08-19T20:09:17.571Z,6.78
2022-08-19T20:11:53.374Z,7.63
2022-08-19T20:14:26.327Z,6.60
2022-08-19T20:16:56.788Z,6.97
2022-08-19T20:19:27.268Z,6.90
2022-08-19T20:21:57.545Z,6.97
2022-08-19T20:24:28.046Z,7.20
2022-08-19T20:26:58.109Z,7.00
2022-08-19T20:29:39.078Z,6.63
2022-08-19T20:32:11.340Z,7.28
2022-08-19T20:34:39.805Z,7.50
2022-08-19T20:37:09.443Z,7.40
2022-08-19T20:39:38.536Z,7.50
2022-08-19T20:42:10.686Z,7.40
2022-08-19T20:44:40.487Z,7.25
2022-08-19T20:47:08.704Z,7.60
2022-08-19T20:49:37.157Z,7.33
2022-08-19T20:52:06.429Z,6.80
2022-08-19T20:54:34.819Z,7.45
2022-08-19T20:57:05.481Z,7.45
2022-08-19T20:59:34.207Z,6.95
2022-08-19T21:02:03.881Z,8.10
2022-08-19T21:04:33.173Z,7.35
2022-08-19T21:07:04.506Z,7.43
2022-08-19T21:09:32.889Z,7.55
2022-08-19T21:12:01.718Z,7.63
2022-08-19T21:14:31.017Z,8.05
2022-08-19T21:16:59.274Z,7.30
2022-08-19T21:19:29.216Z,7.00
2022-08-19T21:21:58.043Z,7.57
2022-08-19T21:24:31.414Z,7.45
2022-08-19T21:27:00.630Z,7.32
2022-08-19T21:29:31.944Z,7.38
2022-08-19T21:32:00.844Z,7.93
2022-08-19T21:34:30.892Z,8.00
2022-08-19T21:36:59.229Z,7.80
2022-08-19T21:41:56.357Z,7.57
2022-08-19T21:44:24.612Z,7.95
2022-08-19T21:46:53.223Z,7.13
2022-08-19T21:49:22.319Z,7.45
2022-08-19T21:51:52.733Z,7.20
2022-08-19T21:54:21.287Z,7.40
2022-08-19T21:56:50.463Z,7.22
2022-08-19T21:59:18.839Z,6.80
2022-08-19T22:01:51.504Z,7.30
2022-08-19T22:04:25.067Z,6.93
2022-08-19T22:06:56.518Z,7.57
2022-08-19T22:09:24.888Z,7.50
2022-08-19T22:11:53.260Z,7.47
2022-08-19T22:14:24.563Z,7.57
2022-08-19T22:19:21.487Z,7.43
2022-08-19T22:21:50.140Z,6.80
2022-08-19T22:24:19.956Z,6.40
2022-08-19T22:26:48.310Z,7.30
2022-08-19T22:29:17.363Z,7.13
2022-08-19T22:31:45.782Z,7.10
2022-08-19T22:34:23.282Z,6.63
2022-08-19T22:36:51.592Z,6.13
2022-08-19T22:39:21.354Z,6.40
2022-08-19T22:41:50.200Z,6.03
2022-08-19T22:44:18.764Z,6.00
2022-08-19T22:46:50.420Z,5.80
2022-08-19T22:49:19.046Z,5.80
2022-08-19T22:52:04.408Z,6.15
2022-08-19T22:54:34.351Z,5.35
2022-08-19T22:57:02.643Z,5.57
2022-08-19T22:59:31.052Z,5.70
2022-08-19T23:01:59.414Z,6.13
2022-08-19T23:04:27.719Z,6.03
2022-08-19T23:06:55.933Z,6.13
2022-08-19T23:09:24.534Z,5.80
2022-08-19T23:12:00.796Z,6.32
2022-08-19T23:14:29.507Z,5.68
2022-08-19T23:16:59.224Z,5.97
2022-08-19T23:19:27.658Z,5.68
2022-08-19T23:21:56.267Z,5.97
2022-08-19T23:24:24.643Z,5.88
2022-08-19T23:27:11.277Z,6.22
2022-08-19T23:29:58.934Z,5.57
2022-08-19T23:32:27.380Z,6.15
2022-08-19T23:34:58.037Z,5.68
2022-08-19T23:37:29.192Z,6.20
2022-08-19T23:39:58.284Z,6.00
2022-08-19T23:42:27.313Z,5.85
2022-08-19T23:47:30.512Z,6.07
2022-08-19T23:49:59.252Z,5.80
2022-08-19T23:52:28.386Z,6.03
2022-08-19T23:55:01.628Z,6.10
2022-08-19T23:57:30.139Z,6.38
